createdAt,value
2023-02-22T00:01:35.546Z,43.26
2023-02-22T00:04:05.150Z,43.05
2023-02-22T00:06:32.081Z,42.95
2023-02-22T00:08:59.791Z,42.95
2023-02-22T00:11:26.712Z,43.11
2023-02-22T00:13:57.103Z,43.14
2023-02-22T00:16:25.475Z,43.20
2023-02-22T00:18:53.186Z,43.00
2023-02-22T00:21:20.341Z,43.08
2023-02-22T00:23:48.071Z,43.00
2023-02-22T00:26:21.585Z,42.99
2023-02-22T00:28:50.984Z,43.11
2023-02-22T00:31:18.249Z,42.89
2023-02-22T00:33:45.489Z,42.97
2023-02-22T00:36:13.550Z,42.92
2023-02-22T00:38:41.353Z,42.83
2023-02-22T00:41:08.685Z,42.83
2023-02-22T00:43:35.539Z,42.81
2023-02-22T00:46:02.484Z,42.61
2023-02-22T00:48:29.390Z,42.76
2023-02-22T00:50:56.026Z,42.55
2023-02-22T00:53:25.114Z,42.63
2023-02-22T00:55:52.193Z,42.74
2023-02-22T00:58:18.888Z,42.62
2023-02-22T01:00:46.320Z,42.58
2023-02-22T01:03:16.011Z,42.58
2023-02-22T01:05:43.147Z,42.47
2023-02-22T01:08:12.109Z,42.50
2023-02-22T01:10:39.579Z,42.74
2023-02-22T01:13:09.312Z,42.41
2023-02-22T01:15:37.701Z,42.43
2023-02-22T01:18:05.276Z,42.49
2023-02-22T01:20:32.602Z,42.47
2023-02-22T01:23:01.365Z,42.41
2023-02-22T01:25:30.460Z,42.37
2023-02-22T01:27:59.049Z,42.37
2023-02-22T01:30:29.279Z,42.22
2023-02-22T01:32:56.640Z,42.51
2023-02-22T01:35:27.881Z,42.41
2023-02-22T01:37:55.056Z,42.08
2023-02-22T01:40:29.691Z,42.11
2023-02-22T01:42:59.839Z,42.17
2023-02-22T01:45:35.289Z,42.11
2023-02-22T01:48:06.477Z,42.12
2023-02-22T01:50:38.859Z,42.12
2023-02-22T01:53:06.656Z,42.08
2023-02-22T01:55:35.715Z,42.11
2023-02-22T01:58:04.393Z,42.05
2023-02-22T02:00:32.169Z,42.09
2023-02-22T02:03:04.885Z,42.06
2023-02-22T02:05:34.255Z,42.00
2023-02-22T02:08:14.529Z,41.95
2023-02-22T02:10:42.662Z,41.99
2023-02-22T02:13:10.158Z,41.91
2023-02-22T02:15:37.345Z,41.95
2023-02-22T02:18:07.571Z,41.95
2023-02-22T02:21:09.594Z,42.03
2023-02-22T02:24:04.875Z,41.93
2023-02-22T02:26:40.517Z,41.85
2023-02-22T02:29:28.134Z,41.67
2023-02-22T02:32:13.222Z,41.82
2023-02-22T02:34:54.892Z,41.87
2023-02-22T02:37:21.489Z,41.73
2023-02-22T02:40:06.863Z,41.86
2023-02-22T02:42:38.173Z,42.03
2023-02-22T02:45:11.575Z,41.76
2023-02-22T02:47:45.722Z,41.74
2023-02-22T02:50:34.057Z,41.80
2023-02-22T02:53:04.821Z,41.74
2023-02-22T02:55:32.782Z,41.92
2023-02-22T02:58:00.284Z,41.74
2023-02-22T03:00:31.597Z,41.58
2023-02-22T03:03:11.863Z,41.81
2023-02-22T03:05:38.851Z,41.68
2023-02-22T03:08:26.456Z,41.76
2023-02-22T03:11:22.289Z,41.62
2023-02-22T03:14:11.718Z,41.54
2023-02-22T03:16:50.374Z,41.75
2023-02-22T03:19:38.292Z,41.62
2023-02-22T03:22:16.358Z,41.86
2023-02-22T03:24:53.081Z,41.74
2023-02-22T03:27:48.392Z,41.82
2023-02-22T03:30:26.952Z,41.71
2023-02-22T03:33:00.521Z,41.53
2023-02-22T03:35:35.407Z,41.63
2023-02-22T03:38:06.082Z,41.58
2023-02-22T03:40:38.552Z,41.56
2023-02-22T03:43:07.903Z,41.44
2023-02-22T03:45:38.334Z,41.55
2023-02-22T03:48:14.265Z,41.63
2023-02-22T03:50:41.011Z,41.74
2023-02-22T03:53:08.106Z,41.50
2023-02-22T03:55:34.956Z,41.69
2023-02-22T03:58:06.655Z,41.45
2023-02-22T04:00:34.736Z,41.60
2023-02-22T04:03:02.227Z,41.50
2023-02-22T04:05:28.903Z,41.49
2023-02-22T04:07:57.173Z,41.61
2023-02-22T04:10:24.192Z,41.44
2023-02-22T04:12:51.008Z,41.35
2023-02-22T04:15:21.330Z,41.39
2023-02-22T04:17:47.935Z,41.52
2023-02-22T04:20:15.088Z,41.38
2023-02-22T04:22:42.022Z,41.42
2023-02-22T04:25:08.753Z,41.40
2023-02-22T04:27:35.291Z,41.37
2023-02-22T04:30:01.881Z,41.29
2023-02-22T04:32:29.685Z,41.38
2023-02-22T04:34:56.253Z,41.38
2023-02-22T04:37:22.785Z,41.46
2023-02-22T04:39:49.339Z,41.43
2023-02-22T04:42:15.964Z,41.35
2023-02-22T04:44:42.528Z,41.22
2023-02-22T04:47:09.053Z,41.46
2023-02-22T04:49:38.024Z,41.33
2023-02-22T04:52:05.526Z,41.41
2023-02-22T04:54:32.117Z,41.50
2023-02-22T04:56:58.646Z,41.41
2023-02-22T04:59:25.304Z,41.36
2023-02-22T05:01:51.946Z,41.30
2023-02-22T05:04:18.545Z,41.27
2023-02-22T05:06:45.052Z,41.25
2023-02-22T05:09:11.567Z,41.28
2023-02-22T05:11:38.189Z,41.30
2023-02-22T05:14:04.833Z,41.32
2023-02-22T05:16:31.435Z,41.26
2023-02-22T05:18:57.977Z,41.17
2023-02-22T05:21:24.516Z,41.15
2023-02-22T05:23:51.049Z,41.24
2023-02-22T05:26:17.767Z,41.56
2023-02-22T05:28:44.354Z,41.37
2023-02-22T05:31:10.889Z,41.33
2023-02-22T05:33:39.713Z,41.40
2023-02-22T05:36:07.802Z,41.39
2023-02-22T05:38:34.854Z,41.53
2023-02-22T05:41:01.367Z,41.54
2023-02-22T05:43:27.845Z,41.66
2023-02-22T05:45:55.623Z,41.69
2023-02-22T05:48:22.755Z,41.68
2023-02-22T05:50:49.904Z,41.67
2023-02-22T05:53:16.556Z,41.57
2023-02-22T05:55:43.638Z,41.73
2023-02-22T05:58:11.510Z,41.60
2023-02-22T06:00:38.036Z,41.69
2023-02-22T06:03:08.100Z,41.83
2023-02-22T06:05:35.198Z,41.70
2023-02-22T06:08:03.196Z,41.77
2023-02-22T06:10:30.021Z,41.63
2023-02-22T06:12:57.503Z,41.70
2023-02-22T06:15:26.455Z,41.79
2023-02-22T06:17:53.235Z,41.62
2023-02-22T06:20:22.746Z,41.78
2023-02-22T06:22:50.975Z,41.59
2023-02-22T06:25:20.535Z,41.76
2023-02-22T06:27:47.046Z,41.84
2023-02-22T06:30:14.886Z,41.70
2023-02-22T06:32:41.446Z,41.76
2023-02-22T06:35:08.762Z,41.74
2023-02-22T06:37:36.194Z,41.82
2023-02-22T06:40:05.816Z,41.76
2023-02-22T06:42:32.776Z,41.82
2023-02-22T06:44:59.424Z,41.85
2023-02-22T06:47:26.119Z,41.68
2023-02-22T06:49:57.303Z,41.91
2023-02-22T06:52:24.289Z,41.95
2023-02-22T06:54:51.648Z,41.84
2023-02-22T06:57:18.563Z,42.02
2023-02-22T06:59:45.099Z,41.90
2023-02-22T07:02:12.702Z,41.99
2023-02-22T07:04:42.268Z,41.94
2023-02-22T07:07:09.810Z,42.35
2023-02-22T07:09:36.417Z,42.63
2023-02-22T07:12:03.052Z,46.15
2023-02-22T07:14:29.614Z,48.65
2023-02-22T07:16:56.106Z,49.72
2023-02-22T07:19:22.589Z,50.15
2023-02-22T07:21:49.201Z,49.90
2023-02-22T07:24:16.065Z,49.24
2023-02-22T07:26:42.911Z,49.66
2023-02-22T07:29:11.288Z,50.75
2023-02-22T07:31:39.206Z,51.91
2023-02-22T07:34:05.761Z,52.65
2023-02-22T07:36:32.399Z,51.93
2023-02-22T07:38:58.985Z,50.96
2023-02-22T07:41:25.555Z,50.39
2023-02-22T07:43:52.261Z,49.88
2023-02-22T07:46:18.818Z,49.79
2023-02-22T07:48:45.333Z,49.32
2023-02-22T07:51:16.357Z,49.02
2023-02-22T07:53:43.144Z,48.07
2023-02-22T07:56:10.346Z,48.02
2023-02-22T07:58:36.944Z,48.17
2023-02-22T08:01:03.685Z,47.74
2023-02-22T08:03:36.418Z,47.45
2023-02-22T08:06:05.037Z,46.82
2023-02-22T08:08:31.748Z,45.96
2023-02-22T08:10:58.491Z,45.65
2023-02-22T08:13:25.285Z,45.64
2023-02-22T08:15:53.799Z,45.48
2023-02-22T08:18:21.407Z,45.15
2023-02-22T08:20:49.909Z,44.88
2023-02-22T08:23:17.983Z,44.95
2023-02-22T08:25:45.021Z,45.26
2023-02-22T08:28:13.878Z,45.67
2023-02-22T08:30:42.828Z,45.75
2023-02-22T08:33:11.653Z,45.83
2023-02-22T08:35:38.227Z,45.67
2023-02-22T08:38:07.261Z,45.33
2023-02-22T08:40:36.558Z,45.28
2023-02-22T08:43:04.639Z,44.96
2023-02-22T08:45:31.253Z,44.75
2023-02-22T08:47:59.424Z,44.66
2023-02-22T08:50:31.994Z,44.69
2023-02-22T08:53:01.004Z,44.93
2023-02-22T08:55:32.430Z,44.70
2023-02-22T08:58:01.414Z,44.75
2023-02-22T09:00:29.589Z,44.90
2023-02-22T09:02:56.430Z,44.74
2023-02-22T09:05:23.214Z,44.62
2023-02-22T09:07:49.690Z,44.42
2023-02-22T09:10:18.899Z,44.08
2023-02-22T09:12:45.415Z,43.56
2023-02-22T09:15:12.786Z,43.36
2023-02-22T09:17:39.480Z,43.52
2023-02-22T09:20:08.041Z,43.19
2023-02-22T09:22:34.636Z,43.22
2023-02-22T09:25:11.333Z,43.02
2023-02-22T09:27:43.611Z,43.28
2023-02-22T09:30:26.990Z,43.17
2023-02-22T09:32:56.517Z,43.07
2023-02-22T09:35:30.027Z,43.26
2023-02-22T09:37:58.739Z,43.17
2023-02-22T09:40:30.246Z,42.75
2023-02-22T09:43:16.355Z,42.63
2023-02-22T09:45:45.174Z,42.21
2023-02-22T09:48:21.693Z,42.05
2023-02-22T09:50:52.177Z,41.87
2023-02-22T09:53:29.927Z,41.78
2023-02-22T09:56:06.902Z,41.74
2023-02-22T09:58:41.721Z,41.76
2023-02-22T10:01:20.088Z,41.73
2023-02-22T10:04:05.541Z,41.76
2023-02-22T10:06:33.853Z,41.95
2023-02-22T10:09:07.709Z,41.88
2023-02-22T10:11:43.414Z,41.95
2023-02-22T10:14:28.646Z,42.07
2023-02-22T10:17:10.874Z,42.07
2023-02-22T10:19:57.626Z,41.91
2023-02-22T10:22:39.418Z,41.90
2023-02-22T10:25:17.909Z,41.88
2023-02-22T10:28:03.652Z,42.09
2023-02-22T10:30:37.281Z,41.81
2023-02-22T10:33:17.394Z,41.64
2023-02-22T10:35:46.961Z,41.67
2023-02-22T10:38:19.200Z,41.43
2023-02-22T10:41:10.898Z,41.44
2023-02-22T10:43:38.624Z,41.49
2023-02-22T10:46:12.549Z,41.30
2023-02-22T10:48:42.187Z,41.28
2023-02-22T10:51:09.860Z,41.30
2023-02-22T10:53:41.160Z,41.08
2023-02-22T10:56:21.594Z,41.14
2023-02-22T10:59:04.223Z,40.99
2023-02-22T11:01:37.575Z,40.56
2023-02-22T11:04:09.981Z,41.06
2023-02-22T11:06:38.416Z,41.19
2023-02-22T11:09:22.375Z,41.24
2023-02-22T11:11:50.592Z,41.14
2023-02-22T11:14:29.802Z,41.01
2023-02-22T11:16:59.206Z,41.14
2023-02-22T11:19:28.978Z,41.14
2023-02-22T11:22:09.577Z,41.25
2023-02-22T11:24:49.318Z,41.31
2023-02-22T11:27:33.763Z,41.19
2023-02-22T11:30:22.142Z,41.22
2023-02-22T11:32:54.600Z,41.17
2023-02-22T11:35:33.042Z,41.32
2023-02-22T11:38:21.101Z,41.26
2023-02-22T11:41:06.257Z,41.12
2023-02-22T11:43:32.751Z,41.20
2023-02-22T11:46:02.492Z,41.10
2023-02-22T11:48:32.389Z,41.12
2023-02-22T11:51:03.858Z,41.10
2023-02-22T11:53:40.799Z,41.16
2023-02-22T11:56:36.971Z,41.10
2023-02-22T11:59:32.374Z,41.12
2023-02-22T12:02:18.497Z,40.95
2023-02-22T12:05:08.300Z,41.11
2023-02-22T12:07:53.369Z,41.02
2023-02-22T12:10:56.500Z,41.10
2023-02-22T12:13:40.235Z,41.09
2023-02-22T12:16:13.946Z,41.04
2023-02-22T12:18:59.741Z,41.21
2023-02-22T12:21:29.834Z,41.16
2023-02-22T12:24:08.131Z,41.30
2023-02-22T12:26:39.889Z,41.38
2023-02-22T12:29:14.579Z,41.41
2023-02-22T12:31:51.996Z,41.58
2023-02-22T12:34:21.919Z,41.44
2023-02-22T12:36:53.714Z,41.88
2023-02-22T12:39:53.807Z,41.79
2023-02-22T12:42:56.624Z,41.95
2023-02-22T12:45:48.391Z,42.00
2023-02-22T12:48:21.583Z,42.05
2023-02-22T12:50:56.247Z,42.16
2023-02-22T12:53:31.337Z,42.27
2023-02-22T12:56:25.618Z,42.18
2023-02-22T12:59:08.130Z,42.13
2023-02-22T13:01:50.309Z,42.14
2023-02-22T13:04:20.833Z,42.31
2023-02-22T13:07:21.219Z,42.16
2023-02-22T13:09:57.794Z,42.14
2023-02-22T13:12:52.587Z,42.19
2023-02-22T13:15:23.069Z,42.08
2023-02-22T13:18:02.147Z,42.08
2023-02-22T13:20:33.317Z,42.04
2023-02-22T13:23:39.066Z,42.16
2023-02-22T13:26:22.236Z,41.99
2023-02-22T13:29:15.644Z,41.90
2023-02-22T13:31:59.790Z,41.91
2023-02-22T13:34:50.920Z,42.07
2023-02-22T13:37:58.857Z,42.02
2023-02-22T13:40:50.389Z,42.08
2023-02-22T13:43:38.329Z,41.84
2023-02-22T13:46:20.551Z,41.74
2023-02-22T13:49:14.954Z,41.84
2023-02-22T13:51:47.496Z,41.73
2023-02-22T13:54:29.761Z,41.77
2023-02-22T13:56:57.626Z,41.69
2023-02-22T13:59:29.945Z,41.69
2023-02-22T14:01:58.310Z,41.90
2023-02-22T14:04:27.864Z,41.67
2023-02-22T14:06:56.748Z,41.78
2023-02-22T14:09:53.719Z,41.72
2023-02-22T14:12:46.435Z,41.77
2023-02-22T14:15:28.584Z,41.67
2023-02-22T14:18:01.067Z,41.66
2023-02-22T14:20:38.226Z,41.89
2023-02-22T14:23:23.336Z,41.62
2023-02-22T14:25:51.070Z,41.68
2023-02-22T14:28:50.207Z,41.50
2023-02-22T14:31:34.872Z,41.58
2023-02-22T14:34:14.857Z,41.65
2023-02-22T14:36:44.271Z,41.46
2023-02-22T14:39:19.625Z,41.66
2023-02-22T14:42:01.522Z,41.57
2023-02-22T14:44:36.033Z,41.51
2023-02-22T14:47:05.851Z,41.58
2023-02-22T14:49:38.768Z,41.58
2023-02-22T14:52:15.922Z,41.62
2023-02-22T14:55:17.784Z,41.53
2023-02-22T14:57:48.366Z,41.73
2023-02-22T15:00:20.175Z,41.73
2023-02-22T15:02:50.053Z,41.63
2023-02-22T15:05:22.245Z,41.61
2023-02-22T15:07:57.166Z,41.69
2023-02-22T15:10:39.550Z,41.47
2023-02-22T15:13:19.491Z,41.62
2023-02-22T15:15:49.646Z,41.66
2023-02-22T15:18:22.111Z,41.47
2023-02-22T15:20:56.067Z,41.49
2023-02-22T15:25:50.719Z,41.54
2023-02-22T15:28:18.610Z,41.73
2023-02-22T15:30:45.417Z,41.92
2023-02-22T15:33:17.521Z,42.01
2023-02-22T15:35:44.943Z,42.22
2023-02-22T15:38:11.387Z,42.30
2023-02-22T15:40:42.982Z,42.30
2023-02-22T15:43:25.201Z,42.36
2023-02-22T15:45:52.266Z,42.87
2023-02-22T15:48:19.471Z,43.34
2023-02-22T15:51:07.135Z,43.04
2023-02-22T15:53:45.262Z,42.96
2023-02-22T15:56:18.389Z,43.03
2023-02-22T15:58:48.430Z,43.04
2023-02-22T16:01:19.268Z,42.88
2023-02-22T16:03:51.168Z,42.84
2023-02-22T16:06:37.946Z,42.93
2023-02-22T16:09:16.199Z,43.01
2023-02-22T16:11:45.002Z,43.05
2023-02-22T16:14:42.747Z,42.72
2023-02-22T16:17:25.477Z,42.74
2023-02-22T16:19:53.150Z,42.67
2023-02-22T16:22:49.453Z,42.66
2023-02-22T16:25:19.282Z,42.81
2023-02-22T16:27:48.602Z,43.38
2023-02-22T16:30:24.304Z,43.55
2023-02-22T16:32:53.726Z,43.49
2023-02-22T16:35:20.331Z,43.62
2023-02-22T16:37:52.352Z,43.39
2023-02-22T16:40:24.987Z,43.54
2023-02-22T16:42:51.835Z,43.55
2023-02-22T16:45:20.199Z,43.42
2023-02-22T16:47:47.607Z,43.35
2023-02-22T16:50:14.857Z,43.60
2023-02-22T16:52:41.742Z,43.63
2023-02-22T16:55:14.199Z,43.51
2023-02-22T16:57:42.305Z,43.41
2023-02-22T17:00:15.324Z,43.58
2023-02-22T17:02:42.347Z,43.58
2023-02-22T17:05:12.858Z,43.38
2023-02-22T17:07:40.521Z,43.37
2023-02-22T17:10:07.656Z,43.39
2023-02-22T17:12:34.309Z,43.41
2023-02-22T17:15:03.447Z,43.59
2023-02-22T17:17:29.975Z,43.25
2023-02-22T17:19:56.803Z,43.46
2023-02-22T17:22:23.332Z,43.66
2023-02-22T17:24:50.020Z,43.65
2023-02-22T17:27:16.568Z,43.52
2023-02-22T17:29:45.027Z,43.67
2023-02-22T17:32:12.817Z,43.73
2023-02-22T17:34:39.381Z,43.83
2023-02-22T17:37:06.341Z,43.59
2023-02-22T17:39:32.896Z,43.65
2023-02-22T17:41:59.757Z,43.66
2023-02-22T17:44:26.696Z,43.85
2023-02-22T17:46:53.908Z,43.65
2023-02-22T17:49:20.562Z,43.79
2023-02-22T17:51:50.055Z,43.62
2023-02-22T17:54:17.649Z,43.65
2023-02-22T17:56:44.639Z,43.53
2023-02-22T17:59:11.227Z,43.69
2023-02-22T18:01:38.113Z,43.73
2023-02-22T18:04:05.341Z,43.68
2023-02-22T18:06:32.789Z,43.65
2023-02-22T18:09:00.409Z,43.85
2023-02-22T18:11:28.847Z,43.84
2023-02-22T18:13:57.238Z,43.89
2023-02-22T18:16:25.787Z,43.94
2023-02-22T18:18:53.254Z,44.00
2023-02-22T18:21:19.729Z,43.94
2023-02-22T18:23:46.227Z,43.86
2023-02-22T18:26:21.123Z,43.81
2023-02-22T18:28:48.923Z,44.11
2023-02-22T18:31:18.579Z,43.93
2023-02-22T18:33:47.773Z,43.89
2023-02-22T18:36:15.536Z,43.98
2023-02-22T18:38:43.661Z,43.85
2023-02-22T18:41:15.825Z,43.83
2023-02-22T18:43:43.424Z,43.92
2023-02-22T18:46:19.324Z,43.92
2023-02-22T18:48:47.872Z,43.80
2023-02-22T18:51:17.278Z,43.90
2023-02-22T18:53:47.059Z,43.77
2023-02-22T18:56:16.354Z,43.71
2023-02-22T18:58:43.447Z,43.74
2023-02-22T19:01:15.856Z,43.84
2023-02-22T19:03:43.043Z,43.80
2023-02-22T19:06:09.979Z,43.90
2023-02-22T19:08:39.658Z,43.59
2023-02-22T19:11:19.281Z,43.79
2023-02-22T19:13:51.671Z,43.76
2023-02-22T19:16:20.888Z,43.87
2023-02-22T19:18:49.227Z,43.68
2023-02-22T19:21:16.608Z,43.76
2023-02-22T19:23:47.628Z,43.77
2023-02-22T19:26:20.224Z,43.99
2023-02-22T19:28:48.149Z,43.97
2023-02-22T19:31:16.368Z,43.70
2023-02-22T19:33:43.889Z,43.74
2023-02-22T19:36:11.999Z,43.83
2023-02-22T19:38:39.579Z,43.89
2023-02-22T19:41:12.417Z,43.90
2023-02-22T19:43:39.262Z,43.88
2023-02-22T19:46:07.282Z,43.88
2023-02-22T19:48:34.551Z,43.89
2023-02-22T19:51:07.175Z,43.81
2023-02-22T19:53:35.025Z,43.91
2023-02-22T19:56:09.685Z,43.65
2023-02-22T19:58:37.966Z,43.69
2023-02-22T20:01:22.880Z,43.91
2023-02-22T20:04:01.729Z,43.97
2023-02-22T20:06:34.659Z,43.76
2023-02-22T20:09:02.657Z,43.79
2023-02-22T20:11:29.514Z,43.77
2023-02-22T20:13:57.128Z,43.87
2023-02-22T20:16:24.421Z,43.76
2023-02-22T20:18:51.255Z,43.87
2023-02-22T20:21:33.201Z,43.79
2023-02-22T20:24:01.302Z,43.68
2023-02-22T20:26:29.920Z,43.57
2023-02-22T20:28:57.452Z,43.93
2023-02-22T20:31:24.612Z,43.75
2023-02-22T20:33:56.402Z,43.93
2023-02-22T20:36:23.665Z,43.86
2023-02-22T20:38:59.129Z,43.79
2023-02-22T20:41:34.828Z,43.88
2023-02-22T20:44:03.336Z,43.95
2023-02-22T20:46:36.326Z,43.77
2023-02-22T20:49:07.439Z,43.91
2023-02-22T20:51:35.398Z,43.84
2023-02-22T20:54:02.034Z,43.83
2023-02-22T20:56:30.895Z,43.80
2023-02-22T20:59:02.195Z,43.83
2023-02-22T21:01:29.146Z,43.88
2023-02-22T21:04:00.533Z,43.78
2023-02-22T21:06:27.973Z,43.85
2023-02-22T21:08:57.145Z,43.79
2023-02-22T21:11:26.326Z,43.98
2023-02-22T21:13:53.734Z,43.80
2023-02-22T21:16:23.626Z,44.15
2023-02-22T21:18:51.699Z,44.08
2023-02-22T21:21:18.973Z,44.07
2023-02-22T21:23:52.611Z,44.02
2023-02-22T21:26:23.555Z,43.89
2023-02-22T21:28:52.199Z,43.82
2023-02-22T21:31:21.416Z,43.81
2023-02-22T21:33:50.633Z,43.90
2023-02-22T21:36:17.750Z,43.59
2023-02-22T21:38:46.724Z,43.68
2023-02-22T21:41:15.328Z,43.62
2023-02-22T21:43:42.707Z,43.77
2023-02-22T21:46:10.926Z,43.43
2023-02-22T21:48:45.254Z,43.67
2023-02-22T21:51:14.165Z,43.69
2023-02-22T21:53:48.727Z,43.52
2023-02-22T21:56:19.054Z,43.44
2023-02-22T21:58:46.807Z,43.32
2023-02-22T22:01:17.364Z,43.29
2023-02-22T22:03:45.904Z,43.40
2023-02-22T22:06:14.600Z,43.36
2023-02-22T22:08:42.227Z,43.28
2023-02-22T22:11:10.462Z,43.20
2023-02-22T22:13:39.698Z,43.43
2023-02-22T22:16:16.517Z,43.17
2023-02-22T22:18:44.773Z,43.19
2023-02-22T22:21:22.880Z,43.36
2023-02-22T22:23:54.551Z,43.12
2023-02-22T22:26:24.579Z,43.20
2023-02-22T22:28:54.370Z,43.15
2023-02-22T22:31:23.715Z,43.08
2023-02-22T22:33:50.658Z,43.06
2023-02-22T22:36:19.696Z,43.17
2023-02-22T22:38:49.325Z,42.97
2023-02-22T22:41:19.032Z,42.99
2023-02-22T22:43:46.594Z,43.01
2023-02-22T22:46:16.257Z,43.04
2023-02-22T22:48:46.743Z,43.05
2023-02-22T22:51:15.118Z,42.86
2023-02-22T22:53:43.738Z,42.81
2023-02-22T22:56:18.907Z,43.03
2023-02-22T22:58:50.765Z,43.10
2023-02-22T23:01:20.393Z,43.01
2023-02-22T23:03:54.914Z,42.92
2023-02-22T23:06:27.203Z,42.88
2023-02-22T23:09:12.003Z,42.88
2023-02-22T23:11:44.557Z,42.79
2023-02-22T23:14:13.471Z,42.72
2023-02-22T23:16:40.300Z,42.66
2023-02-22T23:19:07.981Z,42.67
2023-02-22T23:21:35.978Z,42.81
2023-02-22T23:24:06.727Z,42.63
2023-02-22T23:26:34.081Z,42.83
2023-02-22T23:29:01.817Z,42.75
2023-02-22T23:31:29.119Z,42.54
2023-02-22T23:33:58.549Z,42.60
2023-02-22T23:36:26.435Z,42.68
2023-02-22T23:38:54.234Z,42.59
2023-02-22T23:41:21.155Z,42.67
2023-02-22T23:43:47.785Z,42.64
2023-02-22T23:46:18.552Z,42.62
2023-02-22T23:48:53.047Z,42.64
2023-02-22T23:51:25.611Z,42.64
2023-02-22T23:53:58.103Z,42.48
2023-02-22T23:56:27.241Z,42.49
2023-02-22T23:58:57.343Z,42.75
